createdAt,value
2023-02-12T00:00:52.811Z,102896.47
2023-02-12T00:03:20.662Z,102896.69
2023-02-12T00:05:48.470Z,102875.78
2023-02-12T00:08:16.447Z,102878.50
2023-02-12T00:10:44.868Z,102879.25
2023-02-12T00:13:12.961Z,102897.81
2023-02-12T00:15:43.325Z,102898.84
2023-02-12T00:18:11.471Z,102893.91
2023-02-12T00:20:39.994Z,102889.91
2023-02-12T00:23:08.078Z,102908.06
2023-02-12T00:25:35.917Z,102900.13
2023-02-12T00:28:03.723Z,102895.69
2023-02-12T00:30:31.532Z,102895.00
2023-02-12T00:33:00.686Z,102880.69
2023-02-12T00:35:28.537Z,102886.53
2023-02-12T00:37:56.268Z,102875.25
2023-02-12T00:40:24.096Z,102891.06
2023-02-12T00:42:51.797Z,102877.22
2023-02-12T00:45:19.694Z,102878.16
2023-02-12T00:47:47.471Z,102874.25
2023-02-12T00:50:16.721Z,102844.66
2023-02-12T00:52:44.584Z,102840.72
2023-02-12T00:55:12.374Z,102826.03
2023-02-12T00:57:40.363Z,102810.97
2023-02-12T01:00:09.417Z,102805.06
2023-02-12T01:02:37.159Z,102816.66
2023-02-12T01:05:05.214Z,102804.22
2023-02-12T01:07:34.316Z,102795.88
2023-02-12T01:10:02.078Z,102809.72
2023-02-12T01:12:29.825Z,102830.31
2023-02-12T01:14:57.612Z,102822.06
2023-02-12T01:17:25.618Z,102812.44
2023-02-12T01:19:58.220Z,102798.50
2023-02-12T01:22:26.343Z,102793.69
2023-02-12T01:24:55.464Z,102789.31
2023-02-12T01:27:23.208Z,102793.41
2023-02-12T01:29:51.142Z,102793.69
2023-02-12T01:32:18.976Z,102798.78
2023-02-12T01:34:46.779Z,102803.47
2023-02-12T01:37:14.509Z,102802.84
2023-02-12T01:39:42.250Z,102802.50
2023-02-12T01:42:13.902Z,102800.28
2023-02-12T01:44:46.580Z,102801.97
2023-02-12T01:47:18.478Z,102811.28
2023-02-12T01:49:49.844Z,102837.31
2023-02-12T01:52:23.735Z,102862.31
2023-02-12T01:54:56.161Z,102886.63
2023-02-12T01:57:29.246Z,102894.72
2023-02-12T01:59:59.595Z,102870.75
2023-02-12T02:02:27.957Z,102852.97
2023-02-12T02:05:01.060Z,102843.03
2023-02-12T02:07:29.642Z,102867.53
2023-02-12T02:09:58.322Z,102874.25
2023-02-12T02:12:45.647Z,102871.13
2023-02-12T02:15:13.699Z,102857.13
2023-02-12T02:17:54.221Z,102859.38
2023-02-12T02:21:08.852Z,102827.47
2023-02-12T02:24:17.847Z,102822.38
2023-02-12T02:26:59.242Z,102797.91
2023-02-12T02:30:00.363Z,102797.50
2023-02-12T02:32:32.767Z,102822.03
2023-02-12T02:35:06.043Z,102850.38
2023-02-12T02:37:40.773Z,102882.19
2023-02-12T02:40:12.755Z,102902.03
2023-02-12T02:42:45.940Z,102919.41
2023-02-12T02:45:16.871Z,102935.34
2023-02-12T02:47:49.378Z,102921.75
2023-02-12T02:50:20.471Z,102911.22
2023-02-12T02:52:51.392Z,102929.44
2023-02-12T02:55:21.629Z,102935.41
2023-02-12T02:57:56.118Z,102966.34
2023-02-12T03:00:28.918Z,102962.47
2023-02-12T03:03:03.260Z,102945.78
2023-02-12T03:05:34.612Z,102962.22
2023-02-12T03:08:09.749Z,102990.22
2023-02-12T03:10:42.256Z,103003.00
2023-02-12T03:13:13.404Z,103007.38
2023-02-12T03:15:46.179Z,103013.66
2023-02-12T03:18:21.137Z,103021.59
2023-02-12T03:20:55.002Z,103048.34
2023-02-12T03:23:27.011Z,103052.53
2023-02-12T03:25:59.203Z,103055.59
2023-02-12T03:28:29.817Z,103065.03
2023-02-12T03:31:08.425Z,103085.38
2023-02-12T03:33:50.960Z,103089.13
2023-02-12T03:36:29.192Z,103100.63
2023-02-12T03:39:05.455Z,103096.75
2023-02-12T03:41:41.340Z,103116.19
2023-02-12T03:44:16.798Z,103111.13
2023-02-12T03:46:49.924Z,103083.38
2023-02-12T03:49:25.421Z,103084.75
2023-02-12T03:51:53.910Z,103103.97
2023-02-12T03:54:23.071Z,103119.22
2023-02-12T03:56:56.358Z,103137.91
2023-02-12T03:59:25.898Z,103126.25
2023-02-12T04:01:55.405Z,103142.34
2023-02-12T04:04:25.874Z,103129.88
2023-02-12T04:06:55.034Z,103098.03
2023-02-12T04:09:24.808Z,103081.09
2023-02-12T04:12:08.841Z,103104.47
2023-02-12T04:14:45.572Z,103117.47
2023-02-12T04:17:21.025Z,103128.78
2023-02-12T04:20:00.141Z,103101.56
2023-02-12T04:22:39.085Z,103079.75
2023-02-12T04:25:19.314Z,103098.53
2023-02-12T04:27:53.369Z,103095.03
2023-02-12T04:30:25.342Z,103075.25
2023-02-12T04:32:56.577Z,103087.31
2023-02-12T04:35:31.038Z,103095.91
2023-02-12T04:38:03.170Z,103088.16
2023-02-12T04:40:32.377Z,103053.38
2023-02-12T04:43:00.157Z,103073.31
2023-02-12T04:45:30.556Z,103100.47
2023-02-12T04:47:58.897Z,103087.81
2023-02-12T04:50:37.120Z,103089.44
2023-02-12T04:53:04.899Z,103100.97
2023-02-12T04:55:32.606Z,103096.69
2023-02-12T04:58:00.341Z,103111.06
2023-02-12T05:00:28.246Z,103105.84
2023-02-12T05:02:55.985Z,103084.00
2023-02-12T05:05:24.182Z,103101.47
2023-02-12T05:07:53.310Z,103118.16
2023-02-12T05:10:21.291Z,103123.44
2023-02-12T05:12:49.051Z,103124.13
2023-02-12T05:15:16.947Z,103118.53
2023-02-12T05:17:45.741Z,103131.56
2023-02-12T05:20:14.362Z,103107.69
2023-02-12T05:22:42.124Z,103111.63
2023-02-12T05:25:11.750Z,103100.00
2023-02-12T05:27:39.602Z,103088.56
2023-02-12T05:30:09.557Z,103104.03
2023-02-12T05:32:37.791Z,103095.84
2023-02-12T05:35:06.449Z,103121.50
2023-02-12T05:37:36.312Z,103123.94
2023-02-12T05:40:05.426Z,103105.50
2023-02-12T05:42:34.518Z,103096.69
2023-02-12T05:45:02.246Z,103093.88
2023-02-12T05:47:30.007Z,103083.19
2023-02-12T05:49:58.116Z,103075.81
2023-02-12T05:52:26.218Z,103078.78
2023-02-12T05:54:54.083Z,103076.22
2023-02-12T05:57:21.827Z,103094.19
2023-02-12T05:59:50.920Z,103099.00
2023-02-12T06:02:18.635Z,103081.53
2023-02-12T06:04:48.527Z,103078.00
2023-02-12T06:07:16.422Z,103068.03
2023-02-12T06:09:44.198Z,103087.69
2023-02-12T06:12:11.967Z,103076.72
2023-02-12T06:14:41.985Z,103052.78
2023-02-12T06:17:11.083Z,103056.94
2023-02-12T06:19:38.814Z,103050.09
2023-02-12T06:22:06.646Z,103042.22
2023-02-12T06:24:34.549Z,103032.97
2023-02-12T06:27:02.356Z,103028.63
2023-02-12T06:29:30.295Z,103043.84
2023-02-12T06:31:58.097Z,103055.84
2023-02-12T06:34:27.298Z,103082.25
2023-02-12T06:36:55.077Z,103071.38
2023-02-12T06:39:22.827Z,103075.03
2023-02-12T06:41:50.587Z,103093.44
2023-02-12T06:44:18.394Z,103119.06
2023-02-12T06:46:46.232Z,103109.63
2023-02-12T06:49:15.060Z,103131.66
2023-02-12T06:51:44.192Z,103111.28
2023-02-12T06:54:16.964Z,103125.78
2023-02-12T06:56:45.263Z,103129.34
2023-02-12T06:59:15.597Z,103111.97
2023-02-12T07:01:43.658Z,103102.00
2023-02-12T07:04:12.228Z,103106.19
2023-02-12T07:06:40.141Z,103113.25
2023-02-12T07:09:09.252Z,103125.38
2023-02-12T07:11:38.513Z,103134.84
2023-02-12T07:14:07.274Z,103120.09
2023-02-12T07:16:35.229Z,103135.81
2023-02-12T07:19:03.037Z,103140.00
2023-02-12T07:21:32.027Z,103148.94
2023-02-12T07:23:59.823Z,103134.69
2023-02-12T07:26:29.241Z,103112.06
2023-02-12T07:28:59.454Z,103088.38
2023-02-12T07:31:27.374Z,103089.84
2023-02-12T07:33:56.200Z,103092.69
2023-02-12T07:36:25.566Z,103133.59
2023-02-12T07:38:53.285Z,103128.06
2023-02-12T07:41:22.652Z,103121.00
2023-02-12T07:43:56.795Z,103121.53
2023-02-12T07:46:29.696Z,103125.09
2023-02-12T07:48:58.711Z,103107.94
2023-02-12T07:51:27.515Z,103097.56
2023-02-12T07:53:55.795Z,103090.97
2023-02-12T07:56:25.384Z,103096.31
2023-02-12T07:58:54.820Z,103098.88
2023-02-12T08:01:24.430Z,103087.50
2023-02-12T08:03:52.583Z,103100.03
2023-02-12T08:06:23.021Z,103102.94
2023-02-12T08:08:52.603Z,103096.56
2023-02-12T08:11:20.337Z,103101.84
2023-02-12T08:13:48.308Z,103090.47
2023-02-12T08:16:20.337Z,103073.31
2023-02-12T08:18:48.493Z,103059.31
2023-02-12T08:21:18.473Z,103082.16
2023-02-12T08:23:49.860Z,103075.88
2023-02-12T08:26:19.776Z,103085.38
2023-02-12T08:28:50.710Z,103093.00
2023-02-12T08:31:22.318Z,103103.91
2023-02-12T08:33:52.110Z,103105.16
2023-02-12T08:36:22.182Z,103060.34
2023-02-12T08:38:50.557Z,103051.69
2023-02-12T08:41:21.353Z,103049.56
2023-02-12T08:43:50.372Z,103085.47
2023-02-12T08:46:21.750Z,103043.81
2023-02-12T08:48:49.914Z,103043.31
2023-02-12T08:51:20.233Z,103046.22
2023-02-12T08:53:52.429Z,103045.13
2023-02-12T08:56:20.452Z,103057.06
2023-02-12T08:58:48.860Z,103067.66
2023-02-12T09:01:19.579Z,103053.06
2023-02-12T09:03:48.144Z,103060.81
2023-02-12T09:06:16.736Z,103061.00
2023-02-12T09:08:44.877Z,103069.53
2023-02-12T09:11:16.488Z,103052.53
2023-02-12T09:13:44.769Z,103044.94
2023-02-12T09:16:13.861Z,103041.59
2023-02-12T09:18:43.248Z,103044.09
2023-02-12T09:21:13.555Z,103051.50
2023-02-12T09:23:41.840Z,103042.97
2023-02-12T09:26:12.076Z,103060.69
2023-02-12T09:28:40.681Z,103082.09
2023-02-12T09:31:09.572Z,103075.97
2023-02-12T09:33:37.934Z,103050.66
2023-02-12T09:36:10.273Z,103039.91
2023-02-12T09:38:38.520Z,103042.81
2023-02-12T09:41:31.411Z,103060.41
2023-02-12T09:44:05.947Z,103044.66
2023-02-12T09:46:39.253Z,103039.91
2023-02-12T09:49:11.346Z,103047.59
2023-02-12T09:51:43.365Z,103036.59
2023-02-12T09:54:15.497Z,103026.56
2023-02-12T09:56:47.423Z,103015.69
2023-02-12T09:59:26.710Z,103015.69
2023-02-12T10:01:54.491Z,103023.38
2023-02-12T10:04:23.811Z,103025.91
2023-02-12T10:07:02.914Z,103022.03
2023-02-12T10:09:53.289Z,103018.72
2023-02-12T10:12:27.810Z,103025.09
2023-02-12T10:15:16.379Z,103019.38
2023-02-12T10:17:50.210Z,103022.13
2023-02-12T10:20:47.169Z,103014.81
2023-02-12T10:23:31.029Z,103021.19
2023-02-12T10:26:00.841Z,103012.25
2023-02-12T10:28:32.380Z,103016.91
2023-02-12T10:31:03.325Z,103012.53
2023-02-12T10:33:37.787Z,103020.63
2023-02-12T10:36:17.920Z,103018.91
2023-02-12T10:38:51.480Z,103016.59
2023-02-12T10:41:19.308Z,103014.16
2023-02-12T10:43:47.051Z,103016.16
2023-02-12T10:46:16.405Z,103006.31
2023-02-12T10:48:48.345Z,103009.88
2023-02-12T10:51:46.785Z,103002.75
2023-02-12T10:54:38.311Z,103005.63
2023-02-12T10:57:11.129Z,103011.72
2023-02-12T10:59:39.011Z,103017.13
2023-02-12T11:02:27.746Z,103003.19
2023-02-12T11:04:58.032Z,103010.16
2023-02-12T11:07:27.475Z,102997.94
2023-02-12T11:09:58.188Z,103006.50
2023-02-12T11:12:32.331Z,103001.16
2023-02-12T11:15:01.797Z,103005.00
2023-02-12T11:17:36.034Z,103003.84
2023-02-12T11:20:21.734Z,103005.84
2023-02-12T11:22:55.166Z,103010.75
2023-02-12T11:25:25.347Z,103010.16
2023-02-12T11:28:11.791Z,102993.56
2023-02-12T11:30:50.786Z,102994.38
2023-02-12T11:33:24.768Z,103124.91
2023-02-12T11:35:55.657Z,103340.13
2023-02-12T11:38:33.132Z,103363.53
2023-02-12T11:41:08.382Z,103359.94
2023-02-12T11:43:39.602Z,103390.22
2023-02-12T11:46:09.432Z,103394.09
2023-02-12T11:48:41.022Z,103412.00
2023-02-12T11:51:18.606Z,103406.75
2023-02-12T11:53:50.576Z,103425.94
2023-02-12T11:56:20.334Z,103434.69
2023-02-12T11:58:49.602Z,103439.91
2023-02-12T12:01:22.025Z,103446.75
2023-02-12T12:04:00.137Z,103451.38
2023-02-12T12:06:35.353Z,103440.47
2023-02-12T12:09:13.790Z,103439.03
2023-02-12T12:11:52.430Z,103459.78
2023-02-12T12:14:27.137Z,103448.22
2023-02-12T12:17:17.737Z,103456.44
2023-02-12T12:19:56.022Z,103455.16
2023-02-12T12:22:37.730Z,103458.13
2023-02-12T12:25:17.271Z,103446.81
2023-02-12T12:28:09.682Z,103424.66
2023-02-12T12:31:00.196Z,103439.22
2023-02-12T12:33:38.704Z,103446.25
2023-02-12T12:36:47.037Z,103463.81
2023-02-12T12:39:28.127Z,103470.56
2023-02-12T12:42:12.655Z,103483.69
2023-02-12T12:44:58.434Z,103480.59
2023-02-12T12:47:33.993Z,103471.19
2023-02-12T12:50:19.219Z,103457.06
2023-02-12T12:53:09.970Z,103463.31
2023-02-12T12:56:05.864Z,103471.34
2023-02-12T12:58:53.675Z,103487.16
2023-02-12T13:01:50.356Z,103483.03
2023-02-12T13:04:46.961Z,103466.19
2023-02-12T13:07:27.449Z,103471.63
2023-02-12T13:10:15.037Z,103453.06
2023-02-12T13:12:54.452Z,103461.47
2023-02-12T13:15:32.652Z,103481.91
2023-02-12T13:18:14.528Z,103475.09
2023-02-12T13:20:52.305Z,103473.53
2023-02-12T13:23:30.056Z,103456.63
2023-02-12T13:26:06.037Z,103458.75
2023-02-12T13:28:37.285Z,103467.28
2023-02-12T13:31:30.078Z,103468.63
2023-02-12T13:34:01.018Z,103467.22
2023-02-12T13:36:28.860Z,103475.69
2023-02-12T13:39:02.324Z,103469.88
2023-02-12T13:41:30.921Z,103470.88
2023-02-12T13:44:07.449Z,103470.19
2023-02-12T13:46:48.038Z,103469.44
2023-02-12T13:49:27.326Z,103473.88
2023-02-12T13:52:04.140Z,103462.59
2023-02-12T13:54:48.330Z,103467.94
2023-02-12T13:57:18.456Z,103476.56
2023-02-12T13:59:50.152Z,103463.56
2023-02-12T14:02:43.788Z,103460.03
2023-02-12T14:05:32.142Z,103451.75
2023-02-12T14:08:03.571Z,103459.94
2023-02-12T14:10:34.140Z,103459.75
2023-02-12T14:13:22.215Z,103471.75
2023-02-12T14:15:52.513Z,103483.44
2023-02-12T14:18:38.473Z,103471.06
2023-02-12T14:21:42.198Z,103474.41
2023-02-12T14:24:49.754Z,103480.84
2023-02-12T14:27:47.087Z,103461.00
2023-02-12T14:30:31.500Z,103446.50
2023-02-12T14:33:26.219Z,103446.06
2023-02-12T14:36:40.187Z,103440.56
2023-02-12T14:39:29.365Z,103464.78
2023-02-12T14:42:17.918Z,103431.22
2023-02-12T14:44:49.638Z,103424.06
2023-02-12T14:47:47.104Z,103412.09
2023-02-12T14:50:22.971Z,103399.88
2023-02-12T14:52:55.473Z,103376.41
2023-02-12T14:55:27.640Z,103370.28
2023-02-12T14:58:02.096Z,103363.94
2023-02-12T15:00:35.887Z,103369.44
2023-02-12T15:03:17.107Z,103356.50
2023-02-12T15:05:50.242Z,103362.66
2023-02-12T15:08:27.799Z,103360.81
2023-02-12T15:11:00.645Z,103367.84
2023-02-12T15:13:31.211Z,103372.88
2023-02-12T15:16:05.394Z,103358.69
2023-02-12T15:18:45.885Z,103378.53
2023-02-12T15:21:20.966Z,103361.84
2023-02-12T15:23:59.424Z,103365.56
2023-02-12T15:26:29.790Z,103362.00
2023-02-12T15:28:57.729Z,103392.66
2023-02-12T15:31:30.863Z,103387.81
2023-02-12T15:34:00.784Z,103381.78
2023-02-12T15:36:31.291Z,103384.94
2023-02-12T15:39:02.432Z,103364.81
2023-02-12T15:41:37.542Z,103354.09
2023-02-12T15:44:19.637Z,103355.47
2023-02-12T15:47:04.706Z,103325.50
2023-02-12T15:49:38.254Z,103341.47
2023-02-12T15:52:10.533Z,103334.44
2023-02-12T15:54:39.435Z,103334.94
2023-02-12T15:57:19.622Z,103342.84
2023-02-12T15:59:51.659Z,103365.88
2023-02-12T16:02:23.551Z,103300.72
2023-02-12T16:04:52.030Z,103263.03
2023-02-12T16:07:20.551Z,103268.19
2023-02-12T16:09:50.063Z,103238.97
2023-02-12T16:12:22.599Z,103199.75
2023-02-12T16:14:53.868Z,103175.50
2023-02-12T16:17:29.454Z,103222.53
2023-02-12T16:19:59.382Z,103227.38
2023-02-12T16:22:34.143Z,103255.84
2023-02-12T16:25:02.778Z,103275.06
2023-02-12T16:27:32.793Z,103300.63
2023-02-12T16:30:03.821Z,103288.72
2023-02-12T16:32:36.703Z,103284.41
2023-02-12T16:35:08.325Z,103251.13
2023-02-12T16:37:48.277Z,103184.81
2023-02-12T16:40:27.339Z,103158.34
2023-02-12T16:43:00.423Z,103141.22
2023-02-12T16:45:39.100Z,103109.81
2023-02-12T16:48:23.265Z,103101.47
2023-02-12T16:50:53.588Z,103144.06
2023-02-12T16:53:34.596Z,103127.69
2023-02-12T16:56:03.758Z,103102.81
2023-02-12T16:58:31.666Z,103105.69
2023-02-12T17:01:03.822Z,103115.44
2023-02-12T17:03:33.361Z,103112.41
2023-02-12T17:06:01.210Z,103093.88
2023-02-12T17:08:28.966Z,103099.03
2023-02-12T17:10:56.735Z,103100.81
2023-02-12T17:13:24.472Z,103101.69
2023-02-12T17:15:55.397Z,103083.19
2023-02-12T17:18:24.204Z,103061.00
2023-02-12T17:20:56.093Z,103050.69
2023-02-12T17:23:24.602Z,103056.53
2023-02-12T17:25:52.844Z,103085.66
2023-02-12T17:28:21.118Z,103079.22
2023-02-12T17:30:48.974Z,103058.53
2023-02-12T17:33:17.806Z,103081.69
2023-02-12T17:35:45.701Z,103072.28
2023-02-12T17:38:14.829Z,103076.19
2023-02-12T17:40:42.817Z,103053.19
2023-02-12T17:43:10.690Z,103049.16
2023-02-12T17:45:42.997Z,103075.22
2023-02-12T17:48:11.447Z,103090.09
2023-02-12T17:50:39.619Z,103093.16
2023-02-12T17:53:08.279Z,103083.09
2023-02-12T17:55:39.739Z,103072.84
2023-02-12T17:58:08.713Z,103087.00
2023-02-12T18:00:36.570Z,103056.38
2023-02-12T18:03:04.306Z,103069.09
2023-02-12T18:05:32.288Z,103059.88
2023-02-12T18:08:02.268Z,103047.66
2023-02-12T18:10:30.096Z,103045.56
2023-02-12T18:12:59.185Z,103037.75
2023-02-12T18:15:26.908Z,103014.56
2023-02-12T18:17:54.661Z,103023.66
2023-02-12T18:20:22.642Z,103026.19
2023-02-12T18:22:51.055Z,103019.25
2023-02-12T18:25:19.035Z,103023.84
2023-02-12T18:27:46.868Z,103027.09
2023-02-12T18:30:16.883Z,103019.97
2023-02-12T18:32:44.571Z,103027.00
2023-02-12T18:35:12.642Z,103025.84
2023-02-12T18:37:43.262Z,103014.41
2023-02-12T18:40:12.278Z,103018.06
2023-02-12T18:42:40.076Z,103012.97
2023-02-12T18:45:08.684Z,103019.06
2023-02-12T18:47:37.905Z,103022.72
2023-02-12T18:50:06.210Z,103034.00
2023-02-12T18:52:34.014Z,103030.75
2023-02-12T18:55:01.745Z,103034.44
2023-02-12T18:57:30.260Z,103029.97
2023-02-12T18:59:58.139Z,103033.59
2023-02-12T19:02:25.965Z,103029.72
2023-02-12T19:04:55.147Z,103028.81
2023-02-12T19:07:22.967Z,103031.75
2023-02-12T19:09:51.066Z,103034.59
2023-02-12T19:12:18.801Z,103036.06
2023-02-12T19:14:46.758Z,103031.69
2023-02-12T19:17:14.494Z,103036.41
2023-02-12T19:19:42.221Z,103034.88
2023-02-12T19:22:11.363Z,103042.97
2023-02-12T19:24:46.695Z,103025.91
2023-02-12T19:27:15.143Z,103039.03
2023-02-12T19:29:43.129Z,103040.47
2023-02-12T19:32:10.953Z,103056.03
2023-02-12T19:34:39.275Z,103045.19
2023-02-12T19:37:07.915Z,103059.88
2023-02-12T19:39:37.300Z,103060.75
2023-02-12T19:42:05.263Z,103066.03
2023-02-12T19:44:33.431Z,103065.53
2023-02-12T19:47:01.160Z,103053.31
2023-02-12T19:49:30.205Z,103060.47
2023-02-12T19:51:57.986Z,103066.03
2023-02-12T19:54:26.308Z,103053.06
2023-02-12T19:56:56.288Z,103069.44
2023-02-12T19:59:25.906Z,103059.97
2023-02-12T20:01:54.335Z,103073.38
2023-02-12T20:04:23.862Z,103063.22
2023-02-12T20:06:52.374Z,103071.16
2023-02-12T20:09:21.106Z,103083.47
2023-02-12T20:11:48.941Z,103108.84
2023-02-12T20:14:18.092Z,103140.13
2023-02-12T20:16:47.538Z,103141.63
2023-02-12T20:19:17.500Z,103149.41
2023-02-12T20:21:46.276Z,103158.25
2023-02-12T20:24:14.023Z,103178.75
2023-02-12T20:26:41.767Z,103195.66
2023-02-12T20:29:09.495Z,103235.78
2023-02-12T20:31:38.954Z,103232.03
2023-02-12T20:34:08.837Z,103263.66
2023-02-12T20:36:39.007Z,103296.16
2023-02-12T20:39:08.280Z,103343.44
2023-02-12T20:41:37.101Z,103359.75
2023-02-12T20:44:05.490Z,103349.16
2023-02-12T20:46:36.011Z,103359.47
2023-02-12T20:49:05.267Z,103355.75
2023-02-12T20:51:33.048Z,103381.88
2023-02-12T20:54:01.851Z,103387.03
2023-02-12T20:56:32.043Z,103394.34
2023-02-12T20:59:00.216Z,103419.53
2023-02-12T21:01:31.692Z,103428.91
2023-02-12T21:04:03.385Z,103423.19
2023-02-12T21:06:33.155Z,103419.09
2023-02-12T21:09:02.399Z,103422.94
2023-02-12T21:11:30.937Z,103418.75
2023-02-12T21:14:18.463Z,103406.28
2023-02-12T21:16:48.117Z,103396.84
2023-02-12T21:19:16.044Z,103384.22
2023-02-12T21:21:46.120Z,103389.38
2023-02-12T21:24:16.210Z,103416.66
2023-02-12T21:26:44.131Z,103416.00
2023-02-12T21:29:11.962Z,103422.72
2023-02-12T21:31:41.758Z,103422.47
2023-02-12T21:34:13.641Z,103422.09
2023-02-12T21:36:45.107Z,103412.75
2023-02-12T21:39:16.343Z,103395.72
2023-02-12T21:41:44.266Z,103364.88
2023-02-12T21:44:15.013Z,103360.69
2023-02-12T21:46:43.033Z,103357.25
2023-02-12T21:49:12.497Z,103356.38
2023-02-12T21:51:46.712Z,103341.38
2023-02-12T21:54:16.612Z,103333.44
2023-02-12T21:56:48.675Z,103343.09
2023-02-12T21:59:17.064Z,103330.09
2023-02-12T22:01:46.522Z,103315.50
2023-02-12T22:04:14.549Z,103315.50
2023-02-12T22:06:44.223Z,103281.78
2023-02-12T22:09:13.258Z,103298.78
2023-02-12T22:11:43.332Z,103291.31
2023-02-12T22:14:14.201Z,103308.03
2023-02-12T22:16:42.279Z,103323.84
2023-02-12T22:19:10.609Z,103327.88
2023-02-12T22:21:40.725Z,103320.28
2023-02-12T22:24:11.831Z,103274.00
2023-02-12T22:26:39.640Z,103306.31
2023-02-12T22:29:10.809Z,103320.34
2023-02-12T22:31:40.110Z,103332.47
2023-02-12T22:34:12.702Z,103363.56
2023-02-12T22:36:41.750Z,103351.47
2023-02-12T22:39:11.321Z,103363.50
2023-02-12T22:41:39.097Z,103371.97
2023-02-12T22:44:08.207Z,103359.81
2023-02-12T22:46:36.190Z,103368.63
2023-02-12T22:49:04.212Z,103370.72
2023-02-12T22:51:33.402Z,103394.91
2023-02-12T22:54:01.875Z,103391.25
2023-02-12T22:56:31.056Z,103406.38
2023-02-12T22:59:00.539Z,103399.84
2023-02-12T23:01:31.112Z,103378.69
2023-02-12T23:03:59.021Z,103385.94
2023-02-12T23:06:29.243Z,103384.44
2023-02-12T23:08:59.016Z,103372.81
2023-02-12T23:11:28.059Z,103376.09
2023-02-12T23:13:55.890Z,103361.25
2023-02-12T23:16:24.108Z,103367.81
2023-02-12T23:18:57.444Z,103355.22
2023-02-12T23:21:26.096Z,103361.56
2023-02-12T23:23:54.065Z,103343.31
2023-02-12T23:26:22.174Z,103332.47
2023-02-12T23:28:50.014Z,103314.53
2023-02-12T23:31:17.892Z,103307.78
2023-02-12T23:33:45.822Z,103322.81
2023-02-12T23:36:15.192Z,103311.97
2023-02-12T23:38:42.970Z,103319.91
2023-02-12T23:41:10.921Z,103280.63
2023-02-12T23:43:38.676Z,103288.81
2023-02-12T23:46:06.825Z,103317.75
2023-02-12T23:48:34.575Z,103308.00
2023-02-12T23:51:02.343Z,103306.22
2023-02-12T23:53:31.490Z,103321.34
2023-02-12T23:55:59.341Z,103330.25
2023-02-12T23:58:27.183Z,103337.69
